Time;durP1;ratioP1;P1;durP2;ratioP2;P2;SDS_P1;SDS_P2;PMS_P1;PMS_P2;Temp;Humidity;BMP_temperature;BMP_pressure;BME280_temperature;BME280_humidity;BME280_pressure;Samples;Min_cycle;Max_cycle;Signal;HPM_P1;HPM_P2
2023/07/01 00:02:05;;;;;;;;;;;19.90;95.50;;;;;;5037470;28;19952;-80
2023/07/01 00:04:33;;;;;;;;;;;19.90;95.50;;;;;;5015168;28;20403;-79
2023/07/01 00:07:01;;;;;;;;;;;19.90;95.40;;;;;;5018864;28;19909;-79
2023/07/01 00:09:28;;;;;;;;;;;19.90;95.40;;;;;;5003373;28;19949;-79
2023/07/01 00:11:54;;;;;;;;;;;19.80;95.30;;;;;;5036212;28;20364;-78
2023/07/01 00:14:20;;;;;;;;;;;19.70;95.30;;;;;;4998523;28;19920;-78
2023/07/01 00:16:46;;;;;;;;;;;19.70;95.30;;;;;;4999465;28;19917;-78
2023/07/01 00:19:14;;;;;;;;;;;19.70;95.20;;;;;;5023295;28;20352;-79
2023/07/01 00:21:40;;;;;;;;;;;19.70;95.20;;;;;;5011247;28;19919;-80
2023/07/01 00:24:07;;;;;;;;;;;19.70;95.10;;;;;;4995230;28;19921;-79
2023/07/01 00:26:35;;;;;;;;;;;19.70;95.10;;;;;;5003621;28;19921;-79
2023/07/01 00:29:02;;;;;;;;;;;19.70;95.00;;;;;;5019064;28;19921;-78
2023/07/01 00:31:29;;;;;;;;;;;19.70;94.90;;;;;;5003904;28;19963;-80
2023/07/01 00:33:56;;;;;;;;;;;19.70;94.80;;;;;;5019764;28;20276;-79
2023/07/01 00:36:23;;;;;;;;;;;19.60;94.80;;;;;;4998755;28;20365;-79
2023/07/01 00:38:48;;;;;;;;;;;19.60;94.80;;;;;;5014909;28;19913;-79
2023/07/01 00:41:17;;;;;;;;;;;19.60;94.70;;;;;;5036258;28;19920;-80
2023/07/01 00:43:43;;;;;;;;;;;19.60;94.70;;;;;;4998175;28;19928;-78
2023/07/01 00:46:08;;;;;;;;;;;19.50;94.60;;;;;;4997072;28;19909;-78
2023/07/01 00:48:34;;;;;;;;;;;19.50;94.60;;;;;;5020730;28;19917;-78
2023/07/01 00:51:00;;;;;;;;;;;19.50;94.70;;;;;;5022818;28;19919;-81
2023/07/01 00:53:25;;;;;;;;;;;19.50;94.60;;;;;;5008396;28;20027;-81
2023/07/01 00:55:52;;;;;;;;;;;19.40;94.60;;;;;;5039396;28;20349;-80
2023/07/01 00:58:17;;;;;;;;;;;19.40;94.60;;;;;;5020050;28;19933;-80
2023/07/01 01:00:43;;;;;;;;;;;19.50;94.60;;;;;;5025035;28;19913;-81
2023/07/01 01:03:21;;;;;;;;;;;19.40;94.50;;;;;;5040308;28;19913;-80
2023/07/01 01:05:55;;;;;;;;;;;19.40;94.50;;;;;;5038488;28;20060;-79
2023/07/01 01:08:28;;;;;;;;;;;19.40;94.50;;;;;;5024372;28;20365;-80
2023/07/01 01:10:55;;;;;;;;;;;19.40;94.50;;;;;;5024619;28;19913;-78
2023/07/01 01:13:21;;;;;;;;;;;19.40;94.50;;;;;;4998380;28;20400;-80
2023/07/01 01:15:47;;;;;;;;;;;19.30;94.50;;;;;;5002152;28;20060;-78
2023/07/01 01:18:16;;;;;;;;;;;19.30;94.40;;;;;;5006199;28;19913;-79
2023/07/01 01:20:42;;;;;;;;;;;19.30;94.50;;;;;;5006762;28;19991;-79
2023/07/01 01:23:37;;;;;;;;;;;19.30;94.50;;;;;;5038290;28;19917;-79
2023/07/01 01:26:03;;;;;;;;;;;19.30;94.50;;;;;;5023047;28;19925;-79
2023/07/01 01:28:33;;;;;;;;;;;19.40;94.50;;;;;;5020312;28;19917;-79
2023/07/01 01:30:58;;;;;;;;;;;19.40;94.50;;;;;;5001373;28;19916;-78
2023/07/01 01:33:27;;;;;;;;;;;19.40;94.50;;;;;;5024482;28;19917;-79
2023/07/01 01:35:58;;;;;;;;;;;19.30;94.50;;;;;;5022105;28;20281;-79
2023/07/01 01:38:30;;;;;;;;;;;19.30;94.60;;;;;;5021567;28;19909;-79
2023/07/01 01:41:19;;;;;;;;;;;19.30;94.60;;;;;;5006052;28;20361;-80
2023/07/01 01:43:48;;;;;;;;;;;19.30;94.70;;;;;;5011287;28;19924;-79
2023/07/01 01:46:15;;;;;;;;;;;19.30;94.70;;;;;;4979830;28;19917;-80
2023/07/01 01:48:41;;;;;;;;;;;19.30;94.70;;;;;;5004015;28;19971;-78
2023/07/01 01:51:16;;;;;;;;;;;19.30;94.70;;;;;;5002544;28;20552;-80
2023/07/01 01:54:09;;;;;;;;;;;19.30;94.70;;;;;;5001262;28;20417;-78
2023/07/01 01:56:36;;;;;;;;;;;19.30;94.80;;;;;;5021838;28;19988;-78
2023/07/01 01:59:08;;;;;;;;;;;19.30;94.80;;;;;;5003462;28;20075;-78
2023/07/01 02:01:35;;;;;;;;;;;19.30;94.90;;;;;;4980335;28;20369;-79
2023/07/01 02:04:07;;;;;;;;;;;19.20;95.00;;;;;;5019552;28;19947;-80
2023/07/01 02:06:36;;;;;;;;;;;19.20;95.10;;;;;;4982218;28;19917;-79
2023/07/01 02:09:03;;;;;;;;;;;19.20;95.10;;;;;;4980227;28;19918;-79
2023/07/01 02:11:33;;;;;;;;;;;19.20;95.20;;;;;;4980235;28;19913;-79
2023/07/01 02:14:05;;;;;;;;;;;19.20;95.40;;;;;;5002464;28;20357;-79
2023/07/01 02:16:36;;;;;;;;;;;19.20;95.60;;;;;;4977841;28;19956;-79
2023/07/01 02:19:04;;;;;;;;;;;19.10;95.70;;;;;;4980940;28;20479;-79
2023/07/01 02:21:31;;;;;;;;;;;19.10;95.90;;;;;;5018566;28;20345;-79
2023/07/01 02:23:57;;;;;;;;;;;19.10;96.00;;;;;;5021082;28;19922;-79
2023/07/01 02:26:22;;;;;;;;;;;19.10;96.00;;;;;;5028344;28;19917;-78
2023/07/01 02:28:51;;;;;;;;;;;19.10;96.00;;;;;;4987004;28;19964;-79
2023/07/01 02:31:18;;;;;;;;;;;19.10;96.10;;;;;;5021105;28;20329;-79
2023/07/01 02:33:44;;;;;;;;;;;19.00;96.30;;;;;;5003885;28;20262;-78
2023/07/01 02:36:09;;;;;;;;;;;19.00;97.50;;;;;;4985887;28;19996;-79
2023/07/01 02:38:35;;;;;;;;;;;18.90;97.90;;;;;;4980961;28;20400;-78
2023/07/01 02:41:01;;;;;;;;;;;18.80;98.20;;;;;;5003209;28;22556;-79
2023/07/01 02:43:27;;;;;;;;;;;18.70;98.40;;;;;;5008733;28;19921;-79
2023/07/01 02:45:52;;;;;;;;;;;18.60;98.90;;;;;;5023431;28;19960;-79
2023/07/01 02:48:18;;;;;;;;;;;18.50;99.10;;;;;;5000412;28;20276;-78
2023/07/01 02:50:43;;;;;;;;;;;18.50;99.40;;;;;;5018476;28;19912;-78
2023/07/01 02:53:15;;;;;;;;;;;18.40;99.90;;;;;;4999299;28;19917;-79
2023/07/01 02:55:44;;;;;;;;;;;18.40;99.90;;;;;;4995695;28;19917;-79
2023/07/01 02:58:13;;;;;;;;;;;18.40;99.90;;;;;;5022234;28;20008;-78
2023/07/01 03:00:44;;;;;;;;;;;18.40;99.90;;;;;;5023341;28;20377;-80
2023/07/01 03:03:13;;;;;;;;;;;18.40;99.90;;;;;;5036912;28;22312;-79
2023/07/01 03:05:42;;;;;;;;;;;18.40;99.90;;;;;;5022413;28;19917;-78
2023/07/01 03:08:10;;;;;;;;;;;18.40;99.90;;;;;;4998993;28;19917;-78
2023/07/01 03:10:38;;;;;;;;;;;18.30;99.90;;;;;;5036514;28;19920;-78
2023/07/01 03:13:07;;;;;;;;;;;18.40;99.90;;;;;;5021442;28;19970;-79
2023/07/01 03:15:35;;;;;;;;;;;18.40;99.90;;;;;;5005026;28;19909;-79
2023/07/01 03:18:01;;;;;;;;;;;18.30;99.90;;;;;;5022775;28;19947;-78
2023/07/01 03:20:26;;;;;;;;;;;18.20;99.90;;;;;;5003826;28;19976;-79
2023/07/01 03:22:53;;;;;;;;;;;18.20;99.90;;;;;;4998636;28;20348;-78
2023/07/01 03:25:18;;;;;;;;;;;18.20;99.90;;;;;;5037328;28;19944;-79
2023/07/01 03:27:45;;;;;;;;;;;18.20;99.90;;;;;;5022511;28;19950;-79
2023/07/01 03:30:13;;;;;;;;;;;18.20;99.90;;;;;;5021617;28;19916;-79
2023/07/01 03:32:47;;;;;;;;;;;18.20;99.90;;;;;;5037174;28;19912;-79
2023/07/01 03:35:13;;;;;;;;;;;18.10;99.90;;;;;;5000208;28;19912;-79
2023/07/01 03:37:39;;;;;;;;;;;18.00;99.90;;;;;;4999850;28;20345;-77
2023/07/01 03:40:05;;;;;;;;;;;18.00;99.90;;;;;;5021590;28;19918;-79
2023/07/01 03:42:30;;;;;;;;;;;18.00;99.90;;;;;;4998655;28;20300;-79
2023/07/01 03:44:58;;;;;;;;;;;17.90;99.90;;;;;;5003386;28;19921;-78
2023/07/01 03:47:23;;;;;;;;;;;17.90;99.90;;;;;;5021711;28;19917;-78
2023/07/01 03:49:52;;;;;;;;;;;17.90;99.90;;;;;;5001649;28;19913;-78
2023/07/01 03:52:20;;;;;;;;;;;17.90;99.90;;;;;;5022182;28;19913;-79
2023/07/01 03:54:55;;;;;;;;;;;17.90;99.90;;;;;;5019355;28;20007;-78
2023/07/01 03:57:23;;;;;;;;;;;18.00;99.90;;;;;;4997307;28;19909;-79
2023/07/01 03:59:51;;;;;;;;;;;17.90;99.90;;;;;;5021121;28;20066;-77
2023/07/01 04:02:17;;;;;;;;;;;17.90;99.90;;;;;;4998379;28;19909;-78
2023/07/01 04:04:48;;;;;;;;;;;17.90;99.90;;;;;;4998638;28;19921;-78
2023/07/01 04:07:21;;;;;;;;;;;17.90;99.90;;;;;;5020791;28;19931;-77
2023/07/01 04:09:55;;;;;;;;;;;17.80;99.90;;;;;;5022120;28;19928;-77
2023/07/01 04:12:26;;;;;;;;;;;17.90;99.90;;;;;;5036404;28;19917;-78
2023/07/01 04:14:54;;;;;;;;;;;17.90;99.90;;;;;;5001259;28;20269;-78
2023/07/01 04:17:26;;;;;;;;;;;17.90;99.90;;;;;;5002934;28;19913;-79
2023/07/01 04:19:52;;;;;;;;;;;17.90;99.90;;;;;;4998940;28;19956;-79
2023/07/01 04:22:19;;;;;;;;;;;17.90;99.90;;;;;;5017375;28;19951;-79
2023/07/01 04:24:44;;;;;;;;;;;17.90;99.90;;;;;;5000954;28;19931;-79
2023/07/01 04:27:23;;;;;;;;;;;17.90;99.90;;;;;;5021418;28;19932;-78
2023/07/01 04:29:48;;;;;;;;;;;17.80;99.90;;;;;;5001196;28;20661;-78
2023/07/01 04:32:14;;;;;;;;;;;17.60;99.90;;;;;;5036591;28;19936;-79
2023/07/01 04:34:39;;;;;;;;;;;17.50;99.90;;;;;;5007545;28;19920;-79
2023/07/01 04:37:08;;;;;;;;;;;17.40;99.90;;;;;;5021357;28;20762;-79
2023/07/01 04:39:33;;;;;;;;;;;17.50;99.90;;;;;;5001816;28;19920;-79
2023/07/01 04:41:59;;;;;;;;;;;17.50;99.90;;;;;;4998357;28;20015;-78
2023/07/01 04:44:24;;;;;;;;;;;17.40;99.90;;;;;;4993251;28;19964;-78
2023/07/01 04:46:50;;;;;;;;;;;17.40;99.90;;;;;;5016613;28;19975;-78
2023/07/01 04:49:16;;;;;;;;;;;17.40;99.90;;;;;;4981464;28;19922;-79
2023/07/01 04:51:41;;;;;;;;;;;17.30;99.90;;;;;;4980879;28;19972;-79
2023/07/01 04:54:08;;;;;;;;;;;17.20;99.90;;;;;;5000994;28;20452;-78
2023/07/01 04:56:33;;;;;;;;;;;17.20;99.90;;;;;;4980058;28;19953;-78
2023/07/01 04:59:00;;;;;;;;;;;17.10;99.90;;;;;;4983860;28;19921;-78
2023/07/01 05:01:26;;;;;;;;;;;16.90;99.90;;;;;;4981348;28;19998;-78
2023/07/01 05:03:53;;;;;;;;;;;16.80;99.90;;;;;;5000460;28;20004;-78
2023/07/01 05:06:18;;;;;;;;;;;16.60;99.90;;;;;;4980332;28;20027;-79
2023/07/01 05:08:44;;;;;;;;;;;16.50;99.90;;;;;;4981809;28;19957;-79
2023/07/01 05:11:10;;;;;;;;;;;16.50;99.90;;;;;;5002013;28;19920;-78
2023/07/01 05:13:36;;;;;;;;;;;16.50;99.90;;;;;;4979896;28;20322;-77
2023/07/01 05:16:01;;;;;;;;;;;16.60;99.90;;;;;;4976989;28;19917;-78
2023/07/01 05:18:27;;;;;;;;;;;16.60;99.90;;;;;;5016142;28;19920;-77
2023/07/01 05:20:53;;;;;;;;;;;16.60;99.90;;;;;;5000946;28;19936;-77
2023/07/01 05:23:18;;;;;;;;;;;16.70;99.90;;;;;;5001330;28;19909;-77
2023/07/01 05:25:45;;;;;;;;;;;16.80;99.90;;;;;;4978118;28;19921;-77
2023/07/01 05:28:10;;;;;;;;;;;16.80;99.90;;;;;;4983152;28;19925;-78
2023/07/01 05:30:37;;;;;;;;;;;16.80;99.90;;;;;;4979550;28;19940;-77
2023/07/01 05:33:02;;;;;;;;;;;16.80;99.90;;;;;;4980707;28;19967;-77
2023/07/01 05:35:28;;;;;;;;;;;16.80;99.90;;;;;;4985479;28;19921;-77
2023/07/01 05:37:57;;;;;;;;;;;16.80;99.90;;;;;;5004722;28;19920;-77
2023/07/01 05:40:22;;;;;;;;;;;16.90;99.90;;;;;;4996758;28;19928;-77
2023/07/01 05:42:49;;;;;;;;;;;16.90;99.90;;;;;;4997346;28;19917;-77
2023/07/01 05:45:14;;;;;;;;;;;16.90;99.90;;;;;;5030235;28;19943;-78
2023/07/01 05:47:43;;;;;;;;;;;17.00;99.90;;;;;;5016678;28;19909;-77
2023/07/01 05:50:09;;;;;;;;;;;17.00;99.90;;;;;;5031383;28;19913;-79
2023/07/01 05:52:35;;;;;;;;;;;17.00;99.90;;;;;;5012413;28;19935;-78
2023/07/01 05:55:01;;;;;;;;;;;17.00;99.90;;;;;;5040588;28;20022;-78
2023/07/01 05:57:26;;;;;;;;;;;17.00;99.90;;;;;;5001974;28;19917;-78
2023/07/01 05:59:52;;;;;;;;;;;17.00;99.90;;;;;;5024999;28;20458;-78
2023/07/01 06:02:18;;;;;;;;;;;17.00;99.90;;;;;;5024635;28;19959;-78
2023/07/01 06:04:45;;;;;;;;;;;17.10;99.90;;;;;;5006797;28;19927;-79
2023/07/01 06:07:12;;;;;;;;;;;17.10;99.90;;;;;;5000008;28;19917;-78
2023/07/01 06:09:39;;;;;;;;;;;17.10;99.90;;;;;;5000673;28;19913;-78
2023/07/01 06:12:05;;;;;;;;;;;17.20;99.90;;;;;;5000670;28;20361;-78
2023/07/01 06:14:33;;;;;;;;;;;17.20;99.90;;;;;;5023597;28;20087;-79
2023/07/01 06:16:59;;;;;;;;;;;17.30;99.90;;;;;;5006087;28;19919;-79
2023/07/01 06:19:26;;;;;;;;;;;17.30;99.90;;;;;;5036535;28;19909;-79
2023/07/01 06:21:51;;;;;;;;;;;17.30;99.90;;;;;;5000254;28;19913;-79
2023/07/01 06:24:18;;;;;;;;;;;17.40;99.90;;;;;;5039112;28;19921;-79
2023/07/01 06:26:43;;;;;;;;;;;17.40;99.90;;;;;;5000333;28;19909;-79
2023/07/01 06:29:09;;;;;;;;;;;17.50;99.90;;;;;;5023710;28;19924;-78
2023/07/01 06:31:37;;;;;;;;;;;17.50;99.90;;;;;;5002980;28;19935;-79
2023/07/01 06:34:10;;;;;;;;;;;17.60;99.90;;;;;;5005095;28;19913;-79
2023/07/01 06:36:36;;;;;;;;;;;17.60;99.90;;;;;;5023845;28;19952;-79
2023/07/01 06:39:01;;;;;;;;;;;17.60;99.90;;;;;;5005957;28;20450;-79
2023/07/01 06:41:28;;;;;;;;;;;17.60;99.90;;;;;;5007023;28;19917;-79
2023/07/01 06:43:55;;;;;;;;;;;17.70;99.90;;;;;;5024471;28;20352;-78
2023/07/01 06:46:26;;;;;;;;;;;17.70;99.90;;;;;;5006331;28;19924;-78
2023/07/01 06:48:52;;;;;;;;;;;17.70;99.90;;;;;;5020770;28;19917;-79
2023/07/01 06:51:25;;;;;;;;;;;17.80;99.90;;;;;;5005534;28;19917;-79
2023/07/01 06:53:57;;;;;;;;;;;17.70;99.90;;;;;;4999467;28;20407;-78
2023/07/01 06:56:22;;;;;;;;;;;17.80;99.90;;;;;;4998180;28;20016;-78
2023/07/01 06:58:49;;;;;;;;;;;17.80;99.90;;;;;;5021552;28;20004;-78
2023/07/01 07:01:24;;;;;;;;;;;17.80;99.90;;;;;;5023171;28;19991;-78
2023/07/01 07:03:57;;;;;;;;;;;17.90;99.90;;;;;;5022897;28;19925;-78
2023/07/01 07:06:28;;;;;;;;;;;17.90;99.90;;;;;;5004608;28;19913;-79
2023/07/01 07:08:53;;;;;;;;;;;18.00;99.90;;;;;;5021160;28;19940;-79
2023/07/01 07:11:24;;;;;;;;;;;18.00;99.90;;;;;;5002567;28;20005;-79
2023/07/01 07:13:51;;;;;;;;;;;17.90;99.90;;;;;;5022086;28;20424;-79
2023/07/01 07:16:16;;;;;;;;;;;17.90;99.90;;;;;;5005096;28;19999;-79
2023/07/01 07:18:45;;;;;;;;;;;17.90;99.90;;;;;;5022778;28;19909;-79
2023/07/01 07:21:12;;;;;;;;;;;17.80;99.90;;;;;;4999938;28;19913;-79
2023/07/01 07:23:48;;;;;;;;;;;17.80;99.90;;;;;;4999639;28;19913;-78
2023/07/01 07:26:14;;;;;;;;;;;17.80;99.90;;;;;;4999493;28;19940;-79
2023/07/01 07:28:40;;;;;;;;;;;17.80;99.90;;;;;;5004813;28;20361;-78
2023/07/01 07:31:09;;;;;;;;;;;17.80;99.90;;;;;;5021407;28;19947;-78
2023/07/01 07:33:34;;;;;;;;;;;17.70;99.90;;;;;;5022787;28;19962;-78
2023/07/01 07:36:00;;;;;;;;;;;17.80;99.90;;;;;;5036446;28;19952;-78
2023/07/01 07:38:25;;;;;;;;;;;17.90;99.90;;;;;;5000923;28;20308;-79
2023/07/01 07:40:51;;;;;;;;;;;18.00;99.90;;;;;;5020404;28;19917;-78
2023/07/01 07:43:16;;;;;;;;;;;18.00;99.90;;;;;;4999518;28;20003;-78
2023/07/01 07:45:43;;;;;;;;;;;18.10;99.90;;;;;;5022427;28;20274;-78
2023/07/01 07:48:10;;;;;;;;;;;18.20;99.90;;;;;;5004027;28;20365;-79
2023/07/01 07:50:35;;;;;;;;;;;18.10;99.90;;;;;;4997445;28;19960;-78
2023/07/01 07:53:03;;;;;;;;;;;18.20;99.90;;;;;;4998954;28;19916;-79
2023/07/01 07:55:33;;;;;;;;;;;18.20;99.90;;;;;;5021445;28;19909;-80
2023/07/01 07:58:04;;;;;;;;;;;18.20;99.90;;;;;;5036794;28;20369;-79
2023/07/01 08:00:29;;;;;;;;;;;18.10;99.90;;;;;;5018773;28;19964;-79
2023/07/01 08:02:56;;;;;;;;;;;18.00;99.90;;;;;;5020099;28;19936;-79
2023/07/01 08:05:25;;;;;;;;;;;18.00;99.90;;;;;;5021288;28;20609;-78
2023/07/01 08:07:50;;;;;;;;;;;18.00;99.90;;;;;;4997375;28;19924;-78
2023/07/01 08:10:16;;;;;;;;;;;18.10;99.90;;;;;;5005544;28;19909;-78
2023/07/01 08:12:42;;;;;;;;;;;18.10;99.90;;;;;;5021555;28;19917;-77
2023/07/01 08:15:09;;;;;;;;;;;18.10;99.90;;;;;;5022063;28;19959;-79
2023/07/01 08:17:34;;;;;;;;;;;18.10;99.90;;;;;;5003583;28;19913;-78
2023/07/01 08:20:00;;;;;;;;;;;18.10;99.90;;;;;;4999285;28;19920;-77
2023/07/01 08:22:27;;;;;;;;;;;18.10;99.90;;;;;;5001529;28;22731;-77
2023/07/01 08:24:52;;;;;;;;;;;18.10;99.90;;;;;;5020855;28;19921;-77
2023/07/01 08:27:19;;;;;;;;;;;18.30;99.90;;;;;;5021764;28;19919;-77
2023/07/01 08:29:44;;;;;;;;;;;18.30;99.90;;;;;;5002337;28;20008;-76
2023/07/01 08:32:10;;;;;;;;;;;18.30;99.90;;;;;;5020190;28;20463;-77
2023/07/01 08:34:36;;;;;;;;;;;18.30;99.90;;;;;;5021196;28;19916;-76
2023/07/01 08:37:05;;;;;;;;;;;18.30;99.90;;;;;;5020872;28;20237;-76
2023/07/01 08:39:34;;;;;;;;;;;18.20;99.90;;;;;;5021746;28;19917;-78
2023/07/01 08:42:03;;;;;;;;;;;18.10;99.90;;;;;;4997009;28;19913;-77
2023/07/01 08:44:29;;;;;;;;;;;18.00;99.90;;;;;;5020350;28;19945;-77
2023/07/01 08:46:56;;;;;;;;;;;17.90;99.90;;;;;;4999296;28;19917;-77
2023/07/01 08:49:23;;;;;;;;;;;17.80;99.90;;;;;;4997495;28;20015;-77
2023/07/01 08:52:03;;;;;;;;;;;17.60;99.90;;;;;;5020512;28;20312;-78
2023/07/01 08:54:32;;;;;;;;;;;17.60;99.90;;;;;;5035961;28;19909;-77
2023/07/01 08:57:00;;;;;;;;;;;17.60;99.90;;;;;;4998083;28;19939;-77
2023/07/01 08:59:29;;;;;;;;;;;17.50;99.90;;;;;;5003141;28;19945;-76
2023/07/01 09:02:01;;;;;;;;;;;17.60;99.90;;;;;;5020089;28;20384;-77
2023/07/01 09:04:27;;;;;;;;;;;17.60;99.90;;;;;;4997928;28;20139;-78
2023/07/01 09:06:53;;;;;;;;;;;17.60;99.90;;;;;;4997185;28;20001;-79
2023/07/01 09:09:18;;;;;;;;;;;17.70;99.90;;;;;;4999917;28;20044;-79
2023/07/01 09:11:47;;;;;;;;;;;17.70;99.90;;;;;;5001628;28;19913;-79
2023/07/01 09:14:13;;;;;;;;;;;17.70;99.90;;;;;;5001620;28;19913;-80
2023/07/01 09:16:40;;;;;;;;;;;17.70;99.90;;;;;;5003891;28;19917;-79
2023/07/01 09:19:07;;;;;;;;;;;17.70;99.90;;;;;;5000938;28;19951;-79
2023/07/01 09:21:32;;;;;;;;;;;17.80;99.90;;;;;;5000662;28;20280;-80
2023/07/01 09:23:59;;;;;;;;;;;17.80;99.90;;;;;;5007098;28;19929;-80
2023/07/01 09:26:30;;;;;;;;;;;17.80;99.90;;;;;;5025191;28;19909;-80
2023/07/01 09:28:56;;;;;;;;;;;17.80;99.90;;;;;;5002261;28;19920;-80
2023/07/01 09:31:22;;;;;;;;;;;17.80;99.90;;;;;;5039604;28;19916;-81
2023/07/01 09:33:59;;;;;;;;;;;17.90;99.90;;;;;;5025121;28;19936;-81
2023/07/01 09:36:26;;;;;;;;;;;17.90;99.90;;;;;;5040526;28;19988;-81
2023/07/01 09:38:54;;;;;;;;;;;17.90;99.90;;;;;;5021822;28;19952;-81
2023/07/01 09:41:26;;;;;;;;;;;17.90;99.90;;;;;;5023882;28;19912;-82
2023/07/01 09:43:57;;;;;;;;;;;17.80;99.90;;;;;;5001012;28;19921;-80
2023/07/01 09:46:24;;;;;;;;;;;17.80;99.90;;;;;;5023724;28;19924;-81
2023/07/01 09:48:54;;;;;;;;;;;17.70;99.90;;;;;;5004840;28;19932;-81
2023/07/01 09:51:22;;;;;;;;;;;17.80;99.90;;;;;;5024444;28;19920;-81
2023/07/01 09:53:48;;;;;;;;;;;17.70;99.90;;;;;;5008287;28;19917;-81
2023/07/01 09:56:16;;;;;;;;;;;17.70;99.90;;;;;;5006350;28;20262;-81
2023/07/01 09:58:42;;;;;;;;;;;17.70;99.90;;;;;;5039547;28;19948;-80
2023/07/01 10:01:08;;;;;;;;;;;17.80;99.90;;;;;;5039222;28;19917;-81
2023/07/01 10:03:35;;;;;;;;;;;17.80;99.90;;;;;;5000209;28;20415;-80
2023/07/01 10:06:01;;;;;;;;;;;17.90;99.90;;;;;;5039034;28;19951;-80
2023/07/01 10:08:26;;;;;;;;;;;18.00;99.90;;;;;;5022685;28;19913;-80
2023/07/01 10:11:10;;;;;;;;;;;18.00;99.90;;;;;;5000616;28;21573;-81
2023/07/01 10:13:44;;;;;;;;;;;18.10;99.90;;;;;;5022603;28;20036;-83
2023/07/01 10:16:10;;;;;;;;;;;18.10;99.90;;;;;;5006315;28;19913;-83
2023/07/01 10:18:36;;;;;;;;;;;18.10;99.90;;;;;;4999457;28;19920;-82
2023/07/01 10:21:20;;;;;;;;;;;18.10;99.90;;;;;;5000203;28;19917;-80
2023/07/01 10:23:49;;;;;;;;;;;18.00;99.90;;;;;;5023290;28;19921;-82
2023/07/01 10:26:47;;;;;;;;;;;18.10;99.90;;;;;;5005799;28;19928;-81
2023/07/01 10:29:28;;;;;;;;;;;18.10;99.90;;;;;;5018719;28;19932;-82
2023/07/01 10:32:09;;;;;;;;;;;18.20;99.90;;;;;;5005474;28;19921;-82
2023/07/01 10:34:53;;;;;;;;;;;18.20;99.90;;;;;;5006331;28;19917;-80
2023/07/01 10:37:22;;;;;;;;;;;18.20;99.90;;;;;;5037237;28;19916;-81
2023/07/01 10:39:48;;;;;;;;;;;18.20;99.90;;;;;;5000487;28;20391;-81
2023/07/01 10:42:34;;;;;;;;;;;18.30;99.90;;;;;;5023513;28;19913;-82
2023/07/01 10:45:12;;;;;;;;;;;18.30;99.90;;;;;;5001120;28;19963;-81
2023/07/01 10:47:42;;;;;;;;;;;18.30;99.90;;;;;;5000369;28;19920;-80
2023/07/01 10:50:09;;;;;;;;;;;18.40;99.90;;;;;;5026886;28;19931;-81
2023/07/01 10:52:54;;;;;;;;;;;18.40;99.90;;;;;;5021301;28;19921;-81
2023/07/01 10:55:34;;;;;;;;;;;18.50;99.90;;;;;;5024040;28;20366;-81
2023/07/01 10:58:12;;;;;;;;;;;18.50;99.90;;;;;;5008059;28;19917;-80
2023/07/01 11:00:38;;;;;;;;;;;18.60;99.90;;;;;;5023113;28;19917;-81
2023/07/01 11:03:09;;;;;;;;;;;18.80;99.90;;;;;;5002964;28;19912;-82
2023/07/01 11:05:36;;;;;;;;;;;18.80;99.90;;;;;;5000773;28;20292;-81
2023/07/01 11:08:08;;;;;;;;;;;18.90;99.90;;;;;;4999035;28;19992;-81
2023/07/01 11:10:34;;;;;;;;;;;19.00;99.90;;;;;;5021654;28;20296;-81
2023/07/01 11:13:02;;;;;;;;;;;19.10;99.90;;;;;;5019982;28;19909;-81
2023/07/01 11:15:31;;;;;;;;;;;19.30;99.90;;;;;;5037950;28;20383;-81
2023/07/01 11:18:00;;;;;;;;;;;19.40;99.90;;;;;;5008604;28;19924;-79
2023/07/01 11:20:45;;;;;;;;;;;19.40;99.90;;;;;;5029141;28;20055;-80
2023/07/01 11:23:12;;;;;;;;;;;19.40;99.90;;;;;;5022071;28;19917;-81
2023/07/01 11:25:42;;;;;;;;;;;19.60;99.90;;;;;;5006258;28;19921;-81
2023/07/01 11:28:07;;;;;;;;;;;19.60;99.90;;;;;;5000115;28;19917;-80
2023/07/01 11:30:33;;;;;;;;;;;19.60;99.90;;;;;;5003364;28;19915;-80
2023/07/01 11:33:14;;;;;;;;;;;19.60;99.90;;;;;;4998589;28;19916;-80
2023/07/01 11:35:55;;;;;;;;;;;19.80;99.90;;;;;;5020540;28;19913;-80
2023/07/01 11:38:26;;;;;;;;;;;20.00;99.90;;;;;;5016231;28;19909;-81
2023/07/01 11:40:55;;;;;;;;;;;20.20;99.90;;;;;;5025703;28;20385;-81
2023/07/01 11:43:22;;;;;;;;;;;20.20;99.90;;;;;;5021954;28;19919;-80
2023/07/01 11:45:51;;;;;;;;;;;20.20;99.90;;;;;;5018000;28;20012;-80
2023/07/01 11:48:36;;;;;;;;;;;20.10;99.90;;;;;;5000272;28;20000;-79
2023/07/01 11:51:25;;;;;;;;;;;19.90;99.90;;;;;;5021224;28;19912;-79
2023/07/01 11:54:12;;;;;;;;;;;19.80;99.90;;;;;;5012782;28;20016;-79
2023/07/01 11:56:40;;;;;;;;;;;19.80;99.90;;;;;;5020825;28;19913;-80
2023/07/01 11:59:21;;;;;;;;;;;19.70;99.90;;;;;;5022172;28;20754;-79
2023/07/01 12:02:06;;;;;;;;;;;19.70;99.90;;;;;;5021889;28;20597;-80
2023/07/01 12:04:35;;;;;;;;;;;19.60;99.90;;;;;;5021214;28;19924;-79
2023/07/01 12:07:22;;;;;;;;;;;19.70;99.90;;;;;;5015794;28;19920;-79
2023/07/01 12:10:14;;;;;;;;;;;19.90;99.90;;;;;;5014825;28;19917;-80
2023/07/01 12:12:47;;;;;;;;;;;20.50;99.90;;;;;;5020521;28;19916;-79
2023/07/01 12:15:19;;;;;;;;;;;20.70;99.90;;;;;;5021563;28;19920;-78
2023/07/01 12:17:51;;;;;;;;;;;20.70;99.90;;;;;;5004037;28;19909;-80
2023/07/01 12:20:23;;;;;;;;;;;20.70;99.90;;;;;;5037080;28;19920;-79
2023/07/01 12:22:51;;;;;;;;;;;20.80;99.90;;;;;;5036032;28;19963;-78
2023/07/01 12:25:21;;;;;;;;;;;20.70;99.90;;;;;;5001689;28;19921;-80
2023/07/01 12:28:12;;;;;;;;;;;;;;;;;;;;;
2023/07/01 12:30:41;;;;;;;;;;;19.70;99.90;;;;;;5013959;28;19935;-81
2023/07/01 12:33:12;;;;;;;;;;;19.40;99.90;;;;;;5019211;28;19955;-81
2023/07/01 12:35:44;;;;;;;;;;;19.20;99.90;;;;;;5005281;28;20341;-81
2023/07/01 12:38:13;;;;;;;;;;;19.00;99.90;;;;;;4998137;28;19917;-81
2023/07/01 12:40:53;;;;;;;;;;;19.00;99.90;;;;;;5028009;28;19924;-81
2023/07/01 12:43:27;;;;;;;;;;;19.20;99.90;;;;;;5043437;28;21146;-81
2023/07/01 12:45:55;;;;;;;;;;;19.20;99.90;;;;;;5041955;28;19925;-81
2023/07/01 12:48:26;;;;;;;;;;;19.20;99.90;;;;;;5059116;28;19909;-79
2023/07/01 12:50:58;;;;;;;;;;;19.20;99.90;;;;;;5037712;28;20003;-80
2023/07/01 12:53:26;;;;;;;;;;;19.10;99.90;;;;;;5040216;28;19921;-80
2023/07/01 12:56:00;;;;;;;;;;;19.10;99.90;;;;;;5028416;28;20448;-81
2023/07/01 12:58:32;;;;;;;;;;;19.00;99.90;;;;;;5026430;28;20425;-81
2023/07/01 13:00:59;;;;;;;;;;;19.00;99.90;;;;;;5025595;28;19987;-83
2023/07/01 13:03:42;;;;;;;;;;;19.00;99.90;;;;;;5060077;28;20088;-83
2023/07/01 13:06:22;;;;;;;;;;;19.00;99.90;;;;;;5040985;28;19963;-83
2023/07/01 13:09:00;;;;;;;;;;;19.10;99.90;;;;;;5025346;28;19920;-82
2023/07/01 13:11:36;;;;;;;;;;;19.10;99.90;;;;;;5025579;28;19924;-82
2023/07/01 13:14:15;;;;;;;;;;;19.10;99.90;;;;;;5025438;28;20039;-83
2023/07/01 13:16:46;;;;;;;;;;;19.10;99.90;;;;;;5007800;28;19992;-83
2023/07/01 13:19:15;;;;;;;;;;;19.20;99.90;;;;;;5001237;28;19987;-82
2023/07/01 13:21:51;;;;;;;;;;;19.30;99.90;;;;;;5004036;28;19921;-82
2023/07/01 13:24:23;;;;;;;;;;;19.40;99.90;;;;;;5000656;28;19930;-83
2023/07/01 13:26:54;;;;;;;;;;;19.40;99.90;;;;;;5039297;28;19913;-84
2023/07/01 13:29:20;;;;;;;;;;;19.30;99.90;;;;;;5001376;28;19996;-83
2023/07/01 13:31:53;;;;;;;;;;;19.30;99.90;;;;;;5017935;28;19921;-83
2023/07/01 13:34:28;;;;;;;;;;;19.40;99.90;;;;;;5024468;28;19967;-82
2023/07/01 13:36:58;;;;;;;;;;;19.50;99.90;;;;;;5022651;28;19910;-83
2023/07/01 13:40:06;;;;;;;;;;;19.70;99.90;;;;;;5039966;28;20585;-83
2023/07/01 13:42:37;;;;;;;;;;;20.00;99.90;;;;;;4962000;28;20600;-82
2023/07/01 13:45:22;;;;;;;;;;;20.30;99.90;;;;;;4962108;28;19918;-83
2023/07/01 13:47:57;;;;;;;;;;;20.40;99.90;;;;;;4969470;28;20324;-83
2023/07/01 13:50:26;;;;;;;;;;;20.30;99.90;;;;;;4999890;28;19925;-83
2023/07/01 13:52:56;;;;;;;;;;;20.20;99.90;;;;;;4980280;28;19952;-82
2023/07/01 13:55:24;;;;;;;;;;;20.10;99.90;;;;;;5001396;28;20273;-82
2023/07/01 13:57:52;;;;;;;;;;;20.00;99.90;;;;;;4986041;28;19909;-83
2023/07/01 14:00:22;;;;;;;;;;;19.90;99.90;;;;;;5003965;28;19913;-83
2023/07/01 14:02:49;;;;;;;;;;;19.70;99.90;;;;;;5017918;28;19918;-83
2023/07/01 14:05:24;;;;;;;;;;;19.60;99.90;;;;;;4985172;28;19972;-83
2023/07/01 14:08:06;;;;;;;;;;;19.60;99.90;;;;;;5001611;28;19924;-83
2023/07/01 14:10:35;;;;;;;;;;;19.70;99.90;;;;;;5003702;28;19917;-83
2023/07/01 14:13:04;;;;;;;;;;;19.80;99.90;;;;;;4982640;28;20365;-83
2023/07/01 14:15:47;;;;;;;;;;;19.90;99.90;;;;;;4984091;28;19913;-83
2023/07/01 14:18:21;;;;;;;;;;;19.80;99.90;;;;;;5018979;28;19913;-83
2023/07/01 14:21:01;;;;;;;;;;;19.70;99.90;;;;;;5003370;28;19964;-83
2023/07/01 14:23:28;;;;;;;;;;;19.70;99.90;;;;;;5001421;28;19913;-83
2023/07/01 14:25:57;;;;;;;;;;;19.60;99.90;;;;;;5002967;28;19921;-83
2023/07/01 14:28:29;;;;;;;;;;;19.50;99.90;;;;;;4987337;28;19923;-83
2023/07/01 14:31:14;;;;;;;;;;;19.60;99.90;;;;;;5002499;28;19913;-83
2023/07/01 14:33:58;;;;;;;;;;;19.70;99.90;;;;;;5000904;28;20052;-83